EZY212 EGPH-EGCC
Flight info
| Callsign | EZY212 |
|---|---|
| Flight time | 0h 49m |
| Altitude | 25000 |
| Route | GOSAM P600 FENIK L612 LAKEY |
| Aircraft | A20N/M-SDE2E3FGHIRWXY/LB1 |
Departure
| Time | 2026-04-23 14:18 |
|---|---|
| Airport | Edinburgh Airport (EGPH) |
Arrival
| Time | 2026-04-23 15:07 |
|---|---|
| Airport | Manchester Airport (EGCC) |
| Time | Latitude | Longitude | Altitude | Speed | Heading |
|---|---|---|---|---|---|
| 2026-04-23 13:35 | 55.94703 | -3.36600 | 106 ft | 0 kts | 88° |
| 2026-04-23 14:04 | 55.94703 | -3.36601 | 106 ft | 1 kts | 88° |
| 2026-04-23 14:04 | 55.94703 | -3.36615 | 106 ft | 1 kts | 88° |
| 2026-04-23 14:04 | 55.94703 | -3.36629 | 106 ft | 1 kts | 88° |
| 2026-04-23 14:05 | 55.94703 | -3.36643 | 106 ft | 1 kts | 88° |
| 2026-04-23 14:05 | 55.94702 | -3.36657 | 106 ft | 1 kts | 82° |
| 2026-04-23 14:05 | 55.94701 | -3.36670 | 105 ft | 1 kts | 77° |
| 2026-04-23 14:05 | 55.94698 | -3.36693 | 106 ft | 2 kts | 70° |
| 2026-04-23 14:06 | 55.94693 | -3.36715 | 103 ft | 1 kts | 54° |
| 2026-04-23 14:06 | 55.94683 | -3.36731 | 104 ft | 2 kts | 20° |
| 2026-04-23 14:06 | 55.94669 | -3.36737 | 106 ft | 2 kts | 0° |
| 2026-04-23 14:06 | 55.94666 | -3.36737 | 105 ft | 0 kts | 0° |
| 2026-04-23 14:09 | 55.94669 | -3.36736 | 106 ft | 2 kts | 0° |
| 2026-04-23 14:09 | 55.94693 | -3.36735 | 106 ft | 5 kts | 1° |
| 2026-04-23 14:09 | 55.94743 | -3.36739 | 105 ft | 9 kts | 349° |
| 2026-04-23 14:10 | 55.94811 | -3.36776 | 104 ft | 12 kts | 0° |
| 2026-04-23 14:10 | 55.94896 | -3.36796 | 104 ft | 11 kts | 333° |
| 2026-04-23 14:10 | 55.94926 | -3.36887 | 104 ft | 10 kts | 250° |
| 2026-04-23 14:10 | 55.94882 | -3.37027 | 104 ft | 16 kts | 240° |
| 2026-04-23 14:11 | 55.94819 | -3.37210 | 104 ft | 20 kts | 238° |
| 2026-04-23 14:11 | 55.94759 | -3.37393 | 109 ft | 15 kts | 238° |
| 2026-04-23 14:11 | 55.94706 | -3.37543 | 110 ft | 15 kts | 239° |
| 2026-04-23 14:11 | 55.94652 | -3.37703 | 113 ft | 16 kts | 238° |
| 2026-04-23 14:12 | 55.94590 | -3.37888 | 111 ft | 20 kts | 239° |
| 2026-04-23 14:12 | 55.94520 | -3.38092 | 111 ft | 20 kts | 238° |
| 2026-04-23 14:12 | 55.94458 | -3.38277 | 110 ft | 14 kts | 240° |
| 2026-04-23 14:12 | 55.94410 | -3.38422 | 112 ft | 15 kts | 238° |
| 2026-04-23 14:13 | 55.94358 | -3.38568 | 116 ft | 13 kts | 238° |
| 2026-04-23 14:13 | 55.94312 | -3.38708 | 116 ft | 13 kts | 238° |
| 2026-04-23 14:13 | 55.94280 | -3.38816 | 119 ft | 7 kts | 255° |
| 2026-04-23 14:13 | 55.94303 | -3.38881 | 117 ft | 6 kts | 327° |
| 2026-04-23 14:14 | 55.94315 | -3.38894 | 119 ft | 0 kts | 328° |
| 2026-04-23 14:16 | 55.94317 | -3.38896 | 119 ft | 2 kts | 328° |
| 2026-04-23 14:16 | 55.94347 | -3.38927 | 117 ft | 8 kts | 330° |
| 2026-04-23 14:16 | 55.94408 | -3.38956 | 117 ft | 10 kts | 18° |
| 2026-04-23 14:16 | 55.94453 | -3.38849 | 115 ft | 12 kts | 59° |
| 2026-04-23 14:17 | 55.94513 | -3.38674 | 113 ft | 27 kts | 58° |
| 2026-04-23 14:17 | 55.94719 | -3.38067 | 115 ft | 90 kts | 59° |
| 2026-04-23 14:17 | 55.95137 | -3.36826 | 154 ft | 136 kts | 60° |
| 2026-04-23 14:17 | 55.95599 | -3.35451 | 665 ft | 135 kts | 56° |
| 2026-04-23 14:18 | 55.96224 | -3.34110 | 1116 ft | 152 kts | 47° |
| 2026-04-23 14:18 | 55.97048 | -3.32676 | 1409 ft | 175 kts | 45° |
| 2026-04-23 14:18 | 55.97990 | -3.31156 | 1872 ft | 190 kts | 43° |
| 2026-04-23 14:18 | 55.99026 | -3.29474 | 2171 ft | 215 kts | 44° |
| 2026-04-23 14:19 | 56.00265 | -3.27799 | 2602 ft | 236 kts | 24° |
| 2026-04-23 14:19 | 56.01876 | -3.27403 | 3581 ft | 235 kts | 350° |
| 2026-04-23 14:19 | 56.03368 | -3.28542 | 4581 ft | 235 kts | 318° |
| 2026-04-23 14:19 | 56.04311 | -3.30878 | 5577 ft | 233 kts | 286° |
| 2026-04-23 14:20 | 56.04436 | -3.33724 | 6542 ft | 232 kts | 255° |
| 2026-04-23 14:20 | 56.03809 | -3.36381 | 7476 ft | 234 kts | 239° |
| 2026-04-23 14:20 | 56.03004 | -3.38925 | 8421 ft | 238 kts | 240° |
| 2026-04-23 14:20 | 56.02291 | -3.41611 | 9396 ft | 240 kts | 245° |
| 2026-04-23 14:21 | 56.01708 | -3.44438 | 10348 ft | 245 kts | 250° |
| 2026-04-23 14:21 | 56.01214 | -3.47402 | 11093 ft | 256 kts | 252° |
| 2026-04-23 14:21 | 56.00741 | -3.50626 | 11507 ft | 280 kts | 254° |
| 2026-04-23 14:21 | 56.00249 | -3.54147 | 11872 ft | 304 kts | 254° |
| 2026-04-23 14:22 | 55.99719 | -3.57952 | 12213 ft | 327 kts | 254° |
| 2026-04-23 14:22 | 55.99150 | -3.61995 | 12752 ft | 341 kts | 254° |
| 2026-04-23 14:22 | 55.98568 | -3.66104 | 13677 ft | 344 kts | 254° |
| 2026-04-23 14:22 | 55.97971 | -3.70285 | 14428 ft | 350 kts | 255° |
| 2026-04-23 14:23 | 55.97367 | -3.74488 | 15088 ft | 357 kts | 255° |
| 2026-04-23 14:23 | 55.96747 | -3.78790 | 15850 ft | 361 kts | 255° |
| 2026-04-23 14:23 | 55.96115 | -3.83167 | 16549 ft | 366 kts | 255° |
| 2026-04-23 14:23 | 55.95472 | -3.87599 | 17217 ft | 372 kts | 255° |
| 2026-04-23 14:24 | 55.94819 | -3.92091 | 17869 ft | 376 kts | 255° |
| 2026-04-23 14:24 | 55.94166 | -3.96571 | 18533 ft | 380 kts | 255° |
| 2026-04-23 14:24 | 55.93207 | -4.00928 | 19149 ft | 379 kts | 238° |
| 2026-04-23 14:24 | 55.91539 | -4.04562 | 19742 ft | 380 kts | 221° |
| 2026-04-23 14:25 | 55.89448 | -4.07442 | 20446 ft | 380 kts | 214° |
| 2026-04-23 14:25 | 55.87246 | -4.10035 | 21191 ft | 379 kts | 212° |
| 2026-04-23 14:25 | 55.85035 | -4.12591 | 21955 ft | 379 kts | 212° |
| 2026-04-23 14:25 | 55.82843 | -4.15182 | 22736 ft | 377 kts | 213° |
| 2026-04-23 14:26 | 55.80678 | -4.17806 | 23535 ft | 376 kts | 214° |
| 2026-04-23 14:26 | 55.78538 | -4.20444 | 24319 ft | 373 kts | 214° |
| 2026-04-23 14:26 | 55.76276 | -4.22664 | 24883 ft | 375 kts | 202° |
| 2026-04-23 14:26 | 55.73766 | -4.24229 | 25008 ft | 390 kts | 196° |
| 2026-04-23 14:27 | 55.71059 | -4.25078 | 25110 ft | 402 kts | 182° |
| 2026-04-23 14:27 | 55.68246 | -4.24597 | 25289 ft | 412 kts | 166° |
| 2026-04-23 14:27 | 55.65512 | -4.23006 | 25414 ft | 413 kts | 157° |
| 2026-04-23 14:27 | 55.62930 | -4.20840 | 25470 ft | 410 kts | 153° |
| 2026-04-23 14:28 | 55.60402 | -4.18417 | 25467 ft | 415 kts | 151° |
| 2026-04-23 14:28 | 55.57894 | -4.15916 | 25465 ft | 413 kts | 150° |
| 2026-04-23 14:28 | 55.55399 | -4.13424 | 25467 ft | 410 kts | 151° |
| 2026-04-23 14:28 | 55.52906 | -4.10956 | 25462 ft | 412 kts | 151° |
| 2026-04-23 14:29 | 55.50389 | -4.08489 | 25459 ft | 414 kts | 151° |
| 2026-04-23 14:29 | 55.47871 | -4.06033 | 25460 ft | 414 kts | 151° |
| 2026-04-23 14:29 | 55.45355 | -4.03587 | 25458 ft | 411 kts | 151° |
| 2026-04-23 14:29 | 55.43700 | -4.01982 | 25460 ft | 410 kts | 151° |
| 2026-04-23 14:30 | 55.41195 | -3.99558 | 25460 ft | 411 kts | 151° |
| 2026-04-23 14:30 | 55.38678 | -3.97125 | 25465 ft | 413 kts | 151° |
| 2026-04-23 14:30 | 55.36157 | -3.94691 | 25464 ft | 413 kts | 151° |
| 2026-04-23 14:30 | 55.33647 | -3.92270 | 25467 ft | 410 kts | 151° |
| 2026-04-23 14:31 | 55.31124 | -3.89840 | 25462 ft | 412 kts | 151° |
| 2026-04-23 14:31 | 55.28644 | -3.87454 | 25463 ft | 410 kts | 152° |
| 2026-04-23 14:31 | 55.26142 | -3.85051 | 25460 ft | 412 kts | 151° |
| 2026-04-23 14:31 | 55.23602 | -3.82617 | 25464 ft | 418 kts | 151° |
| 2026-04-23 14:32 | 55.21059 | -3.80182 | 25460 ft | 416 kts | 151° |
| 2026-04-23 14:32 | 55.18521 | -3.77755 | 25464 ft | 416 kts | 152° |
| 2026-04-23 14:32 | 55.15975 | -3.75324 | 25463 ft | 416 kts | 151° |
| 2026-04-23 14:32 | 55.13433 | -3.72900 | 25464 ft | 416 kts | 152° |
| 2026-04-23 14:33 | 55.10891 | -3.70479 | 25467 ft | 416 kts | 152° |
| 2026-04-23 14:33 | 55.08348 | -3.68062 | 25473 ft | 416 kts | 152° |
| 2026-04-23 14:33 | 55.05806 | -3.65649 | 25472 ft | 416 kts | 152° |
| 2026-04-23 14:33 | 55.03258 | -3.63236 | 25472 ft | 417 kts | 152° |
| 2026-04-23 14:34 | 55.00709 | -3.60822 | 25469 ft | 416 kts | 152° |
| 2026-04-23 14:34 | 54.98164 | -3.58417 | 25468 ft | 416 kts | 152° |
| 2026-04-23 14:34 | 54.95620 | -3.56016 | 25468 ft | 416 kts | 152° |
| 2026-04-23 14:34 | 54.93071 | -3.53614 | 25468 ft | 416 kts | 152° |
| 2026-04-23 14:35 | 54.90524 | -3.51217 | 25467 ft | 416 kts | 152° |
| 2026-04-23 14:35 | 54.87980 | -3.48826 | 25465 ft | 416 kts | 152° |
| 2026-04-23 14:35 | 54.85437 | -3.46440 | 25467 ft | 416 kts | 152° |
| 2026-04-23 14:35 | 54.82887 | -3.44051 | 25465 ft | 416 kts | 152° |
| 2026-04-23 14:36 | 54.80336 | -3.41665 | 25461 ft | 416 kts | 152° |
| 2026-04-23 14:36 | 54.77790 | -3.39285 | 25463 ft | 416 kts | 152° |
| 2026-04-23 14:36 | 54.75242 | -3.36909 | 25460 ft | 416 kts | 152° |
| 2026-04-23 14:36 | 54.72692 | -3.34538 | 25463 ft | 416 kts | 153° |
| 2026-04-23 14:37 | 54.70068 | -3.32447 | 25463 ft | 417 kts | 156° |
| 2026-04-23 14:37 | 54.67390 | -3.30445 | 25464 ft | 419 kts | 156° |
| 2026-04-23 14:37 | 54.64716 | -3.28442 | 25464 ft | 418 kts | 156° |
| 2026-04-23 14:37 | 54.62048 | -3.26442 | 25461 ft | 419 kts | 156° |
| 2026-04-23 14:38 | 54.59373 | -3.24439 | 25460 ft | 419 kts | 156° |
| 2026-04-23 14:38 | 54.56706 | -3.22443 | 25458 ft | 418 kts | 156° |
| 2026-04-23 14:38 | 54.54025 | -3.20444 | 25459 ft | 421 kts | 156° |
| 2026-04-23 14:38 | 54.51327 | -3.18432 | 25458 ft | 424 kts | 156° |
| 2026-04-23 14:39 | 54.48612 | -3.16410 | 25380 ft | 425 kts | 156° |
| 2026-04-23 14:39 | 54.45909 | -3.14399 | 25093 ft | 421 kts | 156° |
| 2026-04-23 14:39 | 54.43221 | -3.12404 | 24525 ft | 421 kts | 156° |
| 2026-04-23 14:39 | 54.40539 | -3.10417 | 23986 ft | 418 kts | 155° |
| 2026-04-23 14:40 | 54.37889 | -3.08454 | 23389 ft | 413 kts | 156° |
| 2026-04-23 14:40 | 54.35301 | -3.06541 | 22871 ft | 407 kts | 156° |
| 2026-04-23 14:40 | 54.32726 | -3.04638 | 22341 ft | 400 kts | 156° |
| 2026-04-23 14:40 | 54.30184 | -3.02764 | 21803 ft | 395 kts | 156° |
| 2026-04-23 14:41 | 54.27673 | -3.00915 | 21259 ft | 391 kts | 156° |
| 2026-04-23 14:41 | 54.25193 | -2.99086 | 20742 ft | 386 kts | 155° |
| 2026-04-23 14:41 | 54.22826 | -2.96968 | 20198 ft | 382 kts | 148° |
| 2026-04-23 14:41 | 54.20622 | -2.94491 | 19683 ft | 378 kts | 146° |
| 2026-04-23 14:42 | 54.18462 | -2.92041 | 19314 ft | 369 kts | 146° |
| 2026-04-23 14:42 | 54.16321 | -2.89624 | 18765 ft | 366 kts | 146° |
| 2026-04-23 14:42 | 54.14228 | -2.87270 | 18561 ft | 353 kts | 147° |
| 2026-04-23 14:42 | 54.12219 | -2.85015 | 18418 ft | 339 kts | 147° |
| 2026-04-23 14:43 | 54.10284 | -2.82848 | 18282 ft | 326 kts | 147° |
| 2026-04-23 14:43 | 54.08420 | -2.80763 | 18057 ft | 317 kts | 147° |
| 2026-04-23 14:43 | 54.06581 | -2.78710 | 17491 ft | 318 kts | 147° |
| 2026-04-23 14:43 | 54.04698 | -2.76608 | 16639 ft | 329 kts | 148° |
| 2026-04-23 14:44 | 54.02758 | -2.74444 | 15956 ft | 335 kts | 148° |
| 2026-04-23 14:44 | 54.00821 | -2.72284 | 15334 ft | 332 kts | 148° |
| 2026-04-23 14:44 | 53.98900 | -2.70145 | 14737 ft | 326 kts | 149° |
| 2026-04-23 14:44 | 53.97033 | -2.68066 | 14324 ft | 316 kts | 149° |
| 2026-04-23 14:45 | 53.95220 | -2.66054 | 13914 ft | 306 kts | 149° |
| 2026-04-23 14:45 | 53.93492 | -2.64139 | 13735 ft | 288 kts | 149° |
| 2026-04-23 14:45 | 53.91843 | -2.62314 | 13331 ft | 280 kts | 149° |
| 2026-04-23 14:45 | 53.90212 | -2.60511 | 12758 ft | 278 kts | 150° |
| 2026-04-23 14:46 | 53.88612 | -2.58744 | 12392 ft | 271 kts | 150° |
| 2026-04-23 14:46 | 53.87032 | -2.57004 | 12027 ft | 271 kts | 149° |
| 2026-04-23 14:46 | 53.85457 | -2.55270 | 11676 ft | 269 kts | 150° |
| 2026-04-23 14:46 | 53.83909 | -2.53565 | 11321 ft | 268 kts | 149° |
| 2026-04-23 14:47 | 53.82348 | -2.51852 | 10973 ft | 267 kts | 149° |
| 2026-04-23 14:47 | 53.80802 | -2.50154 | 10620 ft | 262 kts | 149° |
| 2026-04-23 14:47 | 53.79291 | -2.48497 | 10274 ft | 261 kts | 148° |
| 2026-04-23 14:47 | 53.77761 | -2.46820 | 9923 ft | 260 kts | 149° |
| 2026-04-23 14:48 | 53.76271 | -2.45182 | 9540 ft | 252 kts | 150° |
| 2026-04-23 14:48 | 53.74803 | -2.43575 | 8905 ft | 253 kts | 149° |
| 2026-04-23 14:48 | 53.73333 | -2.41977 | 8412 ft | 247 kts | 152° |
| 2026-04-23 14:48 | 53.71722 | -2.41186 | 7890 ft | 239 kts | 182° |
| 2026-04-23 14:49 | 53.70056 | -2.41589 | 7737 ft | 248 kts | 190° |
| 2026-04-23 14:49 | 53.68376 | -2.42121 | 7904 ft | 243 kts | 190° |
| 2026-04-23 14:49 | 53.66680 | -2.42652 | 7907 ft | 249 kts | 190° |
| 2026-04-23 14:49 | 53.64992 | -2.43187 | 7848 ft | 247 kts | 190° |
| 2026-04-23 14:50 | 53.63299 | -2.43700 | 7661 ft | 243 kts | 188° |
| 2026-04-23 14:50 | 53.61656 | -2.44128 | 7482 ft | 233 kts | 187° |
| 2026-04-23 14:50 | 53.60068 | -2.44520 | 7452 ft | 230 kts | 187° |
| 2026-04-23 14:50 | 53.58488 | -2.44910 | 7454 ft | 229 kts | 187° |
| 2026-04-23 14:51 | 53.56899 | -2.45304 | 7457 ft | 235 kts | 187° |
| 2026-04-23 14:51 | 53.55270 | -2.45710 | 7448 ft | 236 kts | 187° |
| 2026-04-23 14:51 | 53.53673 | -2.46116 | 7456 ft | 231 kts | 187° |
| 2026-04-23 14:51 | 53.52070 | -2.46523 | 7209 ft | 234 kts | 188° |
| 2026-04-23 14:52 | 53.50466 | -2.46930 | 6930 ft | 232 kts | 187° |
| 2026-04-23 14:52 | 53.48883 | -2.47332 | 6590 ft | 229 kts | 187° |
| 2026-04-23 14:52 | 53.47313 | -2.47734 | 6180 ft | 230 kts | 187° |
| 2026-04-23 14:52 | 53.45734 | -2.48137 | 5856 ft | 227 kts | 187° |
| 2026-04-23 14:53 | 53.44179 | -2.48532 | 5487 ft | 227 kts | 187° |
| 2026-04-23 14:53 | 53.42634 | -2.48926 | 5180 ft | 224 kts | 186° |
| 2026-04-23 14:53 | 53.41092 | -2.49316 | 4757 ft | 225 kts | 187° |
| 2026-04-23 14:53 | 53.39573 | -2.49704 | 4468 ft | 222 kts | 186° |
| 2026-04-23 14:54 | 53.38047 | -2.50090 | 4124 ft | 221 kts | 187° |
| 2026-04-23 14:54 | 53.36517 | -2.50473 | 3791 ft | 223 kts | 187° |
| 2026-04-23 14:54 | 53.35014 | -2.50943 | 3618 ft | 216 kts | 198° |
| 2026-04-23 14:54 | 53.33839 | -2.52403 | 3516 ft | 211 kts | 228° |
| 2026-04-23 14:55 | 53.32970 | -2.54360 | 3273 ft | 208 kts | 230° |
| 2026-04-23 14:55 | 53.32147 | -2.56299 | 3044 ft | 200 kts | 231° |
| 2026-04-23 14:55 | 53.31330 | -2.58205 | 2963 ft | 209 kts | 225° |
| 2026-04-23 14:55 | 53.30120 | -2.59442 | 2961 ft | 202 kts | 188° |
| 2026-04-23 14:56 | 53.28776 | -2.59218 | 2957 ft | 191 kts | 157° |
| 2026-04-23 14:56 | 53.27542 | -2.58324 | 2962 ft | 195 kts | 153° |
| 2026-04-23 14:56 | 53.26363 | -2.57398 | 2962 ft | 184 kts | 153° |
| 2026-04-23 14:56 | 53.25258 | -2.56549 | 2968 ft | 171 kts | 153° |
| 2026-04-23 14:57 | 53.24177 | -2.55617 | 2909 ft | 175 kts | 141° |
| 2026-04-23 14:57 | 53.23501 | -2.53997 | 2823 ft | 173 kts | 107° |
| 2026-04-23 14:57 | 53.23512 | -2.52000 | 2774 ft | 178 kts | 77° |
| 2026-04-23 14:57 | 53.23931 | -2.50071 | 2650 ft | 175 kts | 74° |
| 2026-04-23 14:58 | 53.24296 | -2.48126 | 2538 ft | 182 kts | 75° |
| 2026-04-23 14:58 | 53.24677 | -2.46122 | 2777 ft | 176 kts | 75° |
| 2026-04-23 14:58 | 53.25064 | -2.44174 | 3115 ft | 183 kts | 75° |
| 2026-04-23 14:58 | 53.25481 | -2.42121 | 3433 ft | 187 kts | 75° |
| 2026-04-23 14:59 | 53.25860 | -2.40076 | 3480 ft | 184 kts | 85° |
| 2026-04-23 14:59 | 53.25606 | -2.38075 | 3501 ft | 176 kts | 125° |
| 2026-04-23 14:59 | 53.24636 | -2.36907 | 3499 ft | 178 kts | 165° |
| 2026-04-23 14:59 | 53.23411 | -2.37120 | 3487 ft | 180 kts | 205° |
| 2026-04-23 15:00 | 53.22507 | -2.38623 | 3497 ft | 190 kts | 230° |
| 2026-04-23 15:00 | 53.21747 | -2.40417 | 3494 ft | 189 kts | 231° |
| 2026-04-23 15:00 | 53.20984 | -2.42203 | 3485 ft | 189 kts | 231° |
| 2026-04-23 15:00 | 53.20231 | -2.43997 | 3487 ft | 188 kts | 231° |
| 2026-04-23 15:01 | 53.19493 | -2.45786 | 3497 ft | 189 kts | 231° |
| 2026-04-23 15:01 | 53.18754 | -2.47576 | 3485 ft | 185 kts | 230° |
| 2026-04-23 15:01 | 53.18035 | -2.49391 | 3487 ft | 190 kts | 239° |
| 2026-04-23 15:01 | 53.17834 | -2.51577 | 3482 ft | 199 kts | 277° |
| 2026-04-23 15:02 | 53.18189 | -2.52985 | 3491 ft | 203 kts | 304° |
| 2026-04-23 15:02 | 53.19764 | -2.54578 | 3485 ft | 200 kts | 353° |
| 2026-04-23 15:02 | 53.21136 | -2.54361 | 3493 ft | 197 kts | 25° |
| 2026-04-23 15:02 | 53.22270 | -2.53185 | 3490 ft | 191 kts | 45° |
| 2026-04-23 15:03 | 53.23194 | -2.51626 | 3330 ft | 184 kts | 54° |
| 2026-04-23 15:03 | 53.24001 | -2.50016 | 3095 ft | 177 kts | 55° |
| 2026-04-23 15:03 | 53.24762 | -2.48456 | 2862 ft | 170 kts | 54° |
| 2026-04-23 15:03 | 53.25498 | -2.46945 | 2633 ft | 163 kts | 56° |
| 2026-04-23 15:04 | 53.26190 | -2.45515 | 2412 ft | 154 kts | 55° |
| 2026-04-23 15:04 | 53.26841 | -2.44176 | 2195 ft | 142 kts | 55° |
| 2026-04-23 15:04 | 53.27447 | -2.42923 | 2020 ft | 140 kts | 55° |
| 2026-04-23 15:04 | 53.28063 | -2.41657 | 1824 ft | 141 kts | 55° |
| 2026-04-23 15:05 | 53.28671 | -2.40402 | 1643 ft | 135 kts | 55° |
| 2026-04-23 15:05 | 53.29264 | -2.39170 | 1471 ft | 139 kts | 54° |
| 2026-04-23 15:05 | 53.29869 | -2.37924 | 1280 ft | 135 kts | 55° |
| 2026-04-23 15:05 | 53.30462 | -2.36701 | 1068 ft | 134 kts | 54° |
| 2026-04-23 15:06 | 53.31043 | -2.35500 | 898 ft | 132 kts | 54° |
| 2026-04-23 15:06 | 53.31613 | -2.34322 | 729 ft | 132 kts | 55° |
| 2026-04-23 15:06 | 53.32195 | -2.33136 | 587 ft | 134 kts | 54° |
| 2026-04-23 15:06 | 53.32785 | -2.31911 | 413 ft | 134 kts | 53° |
| 2026-04-23 15:07 | 53.33373 | -2.30708 | 245 ft | 135 kts | 54° |
| 2026-04-23 15:07 | 53.33891 | -2.29625 | 232 ft | 90 kts | 51° |
| 2026-04-23 15:07 | 53.34155 | -2.29081 | 233 ft | 32 kts | 50° |
| 2026-04-23 15:07 | 53.34257 | -2.28872 | 231 ft | 27 kts | 51° |
| 2026-04-23 15:08 | 53.34358 | -2.28683 | 229 ft | 17 kts | 41° |
| 2026-04-23 15:08 | 53.34458 | -2.28567 | 231 ft | 18 kts | 28° |
| 2026-04-23 15:08 | 53.34566 | -2.28496 | 232 ft | 16 kts | 20° |
| 2026-04-23 15:09 | 53.34766 | -2.28285 | 232 ft | 18 kts | 52° |
| 2026-04-23 15:09 | 53.34844 | -2.28123 | 234 ft | 17 kts | 51° |
| 2026-04-23 15:09 | 53.34928 | -2.27949 | 232 ft | 21 kts | 51° |
| 2026-04-23 15:09 | 53.35021 | -2.27761 | 232 ft | 16 kts | 51° |
| 2026-04-23 15:10 | 53.35070 | -2.27653 | 234 ft | 15 kts | 51° |
| 2026-04-23 15:10 | 53.35188 | -2.27410 | 232 ft | 19 kts | 50° |
| 2026-04-23 15:10 | 53.35259 | -2.27265 | 233 ft | 15 kts | 50° |
| 2026-04-23 15:10 | 53.35343 | -2.27186 | 235 ft | 16 kts | 359° |
| 2026-04-23 15:11 | 53.35443 | -2.27282 | 239 ft | 18 kts | 321° |
| 2026-04-23 15:11 | 53.35535 | -2.27407 | 237 ft | 18 kts | 320° |
| 2026-04-23 15:11 | 53.35607 | -2.27504 | 233 ft | 8 kts | 322° |
| 2026-04-23 15:11 | 53.35618 | -2.27518 | 233 ft | 0 kts | 321° |
| 2026-04-23 15:14 | 53.35642 | -2.27550 | 233 ft | 8 kts | 322° |
| 2026-04-23 15:14 | 53.35709 | -2.27625 | 232 ft | 12 kts | 337° |
| 2026-04-23 15:14 | 53.35763 | -2.27661 | 232 ft | 9 kts | 335° |
| 2026-04-23 15:14 | 53.35832 | -2.27766 | 235 ft | 17 kts | 313° |
| 2026-04-23 15:15 | 53.35916 | -2.27848 | 232 ft | 15 kts | 2° |
| 2026-04-23 15:15 | 53.36014 | -2.27930 | 234 ft | 13 kts | 315° |
| 2026-04-23 15:15 | 53.36077 | -2.28041 | 235 ft | 17 kts | 313° |
| 2026-04-23 15:15 | 53.36155 | -2.28175 | 232 ft | 18 kts | 313° |
| 2026-04-23 15:16 | 53.36205 | -2.28263 | 232 ft | 16 kts | 314° |
| 2026-04-23 15:16 | 53.36317 | -2.28455 | 232 ft | 15 kts | 314° |
| 2026-04-23 15:16 | 53.36398 | -2.28497 | 234 ft | 9 kts | 12° |
| 2026-04-23 15:16 | 53.36464 | -2.28549 | 232 ft | 14 kts | 315° |
| 2026-04-23 15:17 | 53.36542 | -2.28679 | 232 ft | 17 kts | 314° |
| 2026-04-23 15:17 | 53.36586 | -2.28783 | 233 ft | 15 kts | 296° |
| 2026-04-23 15:17 | 53.36639 | -2.28903 | 232 ft | 14 kts | 314° |
| 2026-04-23 15:17 | 53.36716 | -2.29029 | 232 ft | 13 kts | 315° |
| 2026-04-23 15:18 | 53.36792 | -2.29059 | 233 ft | 13 kts | 19° |
| 2026-04-23 15:18 | 53.36870 | -2.28981 | 235 ft | 11 kts | 45° |
| 2026-04-23 15:18 | 53.36910 | -2.28913 | 232 ft | 8 kts | 46° |
| 2026-04-23 15:18 | 53.36953 | -2.28838 | 232 ft | 0 kts | 44° |
| 2026-04-23 15:19 | 53.36973 | -2.28804 | 234 ft | 7 kts | 45° |
| 2026-04-23 15:19 | 53.36971 | -2.28736 | 232 ft | 8 kts | 128° |
| 2026-04-23 15:19 | 53.36952 | -2.28702 | 234 ft | 5 kts | 134° |
| 2026-04-23 15:19 | 53.36947 | -2.28694 | 235 ft | 0 kts | 134° |